Time;durP1;ratioP1;P1;durP2;ratioP2;P2;SDS_P1;SDS_P2;PMS_P1;PMS_P2;Temp;Humidity;BMP_temperature;BMP_pressure;BME280_temperature;BME280_humidity;BME280_pressure;Samples;Min_cycle;Max_cycle;Signal;HPM_P1;HPM_P2
2022/05/29 00:00:54;;;;;;;;;;;;;;;;;;366238;145;855943;-61
2022/05/29 00:01:56;;;;;;;;;;;;;;;;;;364578;146;855806;-62
2022/05/29 00:02:58;;;;;;;;;;;;;;;;;;365102;145;857867;-61
2022/05/29 00:03:59;;;;;;;;;;;;;;;;;;364381;145;855975;-63
2022/05/29 00:05:01;;;;;;;;;;;;;;;;;;364226;146;855810;-62
2022/05/29 00:06:02;;;;;;;;;;;;;;;;;;365070;146;857565;-62
2022/05/29 00:07:03;;;;;;;;;;;;;;;;;;364122;146;855870;-61
2022/05/29 00:08:05;;;;;;;;;;;;;;;;;;365547;146;857550;-60
2022/05/29 00:09:06;;;;;;;;;;;;;;;;;;364373;146;855664;-61
2022/05/29 00:10:07;;;;;;;;;;;;;;;;;;365209;146;855879;-62
2022/05/29 00:11:09;;;;;;;;;;;;;;;;;;365291;145;855972;-61
2022/05/29 00:12:10;;;;;;;;;;;;;;;;;;365077;145;855758;-62
2022/05/29 00:13:12;;;;;;;;;;;;;;;;;;364138;146;856039;-61
2022/05/29 00:14:14;;;;;;;;;;;;;;;;;;366266;146;856462;-61
2022/05/29 00:15:15;;;;;;;;;;;;;;;;;;366401;145;855871;-61
2022/05/29 00:16:17;;;;;;;;;;;;;;;;;;365455;146;855998;-61
2022/05/29 00:17:18;;;;;;;;;;;;;;;;;;364475;146;855891;-61
2022/05/29 00:18:20;;;;;;;;;;;;;;;;;;364942;146;855880;-61
2022/05/29 00:19:21;;;;;;;;;;;;;;;;;;364971;146;856831;-61
2022/05/29 00:20:22;;;;;;;;;;;;;;;;;;365246;145;855891;-61
2022/05/29 00:21:24;;;;;;;;;;;;;;;;;;366386;146;857559;-61
2022/05/29 00:22:25;;;;;;;;;;;;;;;;;;365411;145;856400;-61
2022/05/29 00:23:26;;;;;;;;;;;;;;;;;;364793;147;856231;-60
2022/05/29 00:24:28;;;;;;;;;;;;;;;;;;365399;146;857459;-61
2022/05/29 00:25:29;;;;;;;;;;;;;;;;;;365228;146;855852;-61
2022/05/29 00:26:31;;;;;;;;;;;;;;;;;;365857;146;858076;-62
2022/05/29 00:27:32;;;;;;;;;;;;;;;;;;364665;147;856215;-61
2022/05/29 00:28:33;;;;;;;;;;;;;;;;;;365604;147;855825;-62
2022/05/29 00:29:35;;;;;;;;;;;;;;;;;;357043;149;856502;-62
2022/05/29 00:30:37;;;;;;;;;;;;;;;;;;357598;148;855891;-62
2022/05/29 00:31:38;;;;;;;;;;;;;;;;;;366789;146;856232;-61
2022/05/29 00:32:39;;;;;;;;;;;;;;;;;;364480;146;856601;-61
2022/05/29 00:33:40;;;;;;;;;;;;;;;;;;363210;145;856438;-61
2022/05/29 00:34:42;;;;;;;;;;;;;;;;;;356528;148;856694;-61
2022/05/29 00:35:43;;;;;;;;;;;;;;;;;;357071;148;855788;-60
2022/05/29 00:36:45;;;;;;;;;;;;;;;;;;357776;148;854910;-61
2022/05/29 00:37:47;;;;;;;;;;;;;;;;;;361678;148;855780;-61
2022/05/29 00:38:50;;;;;;;;;;;;;;;;;;356248;148;856207;-61
2022/05/29 00:39:51;;;;;;;;;;;;;;;;;;357197;148;857299;-61
2022/05/29 00:40:52;;;;;;;;;;;;;;;;;;358730;148;856227;-61
2022/05/29 00:41:54;;;;;;;;;;;;;;;;;;359147;148;855949;-60
2022/05/29 00:42:55;;;;;;;;;;;;;;;;;;360377;148;856284;-60
2022/05/29 00:43:56;;;;;;;;;;;;;;;;;;358594;148;857559;-62
2022/05/29 00:44:58;;;;;;;;;;;;;;;;;;358224;148;856326;-62
2022/05/29 00:45:59;;;;;;;;;;;;;;;;;;358808;148;856012;-62
2022/05/29 00:47:00;;;;;;;;;;;;;;;;;;359607;148;855935;-60
2022/05/29 00:48:04;;;;;;;;;;;;;;;;;;357821;148;855851;-62
2022/05/29 00:49:05;;;;;;;;;;;;;;;;;;356842;148;856778;-62
2022/05/29 00:50:07;;;;;;;;;;;;;;;;;;359977;148;856630;-61
2022/05/29 00:51:08;;;;;;;;;;;;;;;;;;357222;148;855751;-61
2022/05/29 00:52:10;;;;;;;;;;;;;;;;;;358918;146;855851;-61
2022/05/29 00:53:14;;;;;;;;;;;;;;;;;;360046;147;856550;-61
2022/05/29 00:54:14;;;;;;;;;;;;;;;;;;358452;148;855930;-61
2022/05/29 00:55:15;;;;;;;;;;;;;;;;;;358662;148;855277;-61
2022/05/29 00:56:17;;;;;;;;;;;;;;;;;;358715;148;856059;-61
2022/05/29 00:57:18;;;;;;;;;;;;;;;;;;358263;148;856840;-60
2022/05/29 00:58:19;;;;;;;;;;;;;;;;;;359085;148;855930;-60
2022/05/29 00:59:21;;;;;;;;;;;;;;;;;;357003;148;856027;-61
2022/05/29 01:00:25;;;;;;;;;;;;;;;;;;358047;148;855799;-61
2022/05/29 01:01:26;;;;;;;;;;;;;;;;;;358666;148;857542;-62
2022/05/29 01:02:27;;;;;;;;;;;;;;;;;;357693;148;855721;-62
2022/05/29 01:03:28;;;;;;;;;;;;;;;;;;357370;148;855994;-62
2022/05/29 01:04:30;;;;;;;;;;;;;;;;;;356312;148;855834;-61
2022/05/29 01:05:31;;;;;;;;;;;;;;;;;;357610;148;856716;-60
2022/05/29 01:06:32;;;;;;;;;;;;;;;;;;356846;148;855920;-61
2022/05/29 01:07:34;;;;;;;;;;;;;;;;;;358168;148;855859;-61
2022/05/29 01:08:36;;;;;;;;;;;;;;;;;;357651;148;856812;-61
2022/05/29 01:09:37;;;;;;;;;;;;;;;;;;359211;148;855938;-61
2022/05/29 01:10:39;;;;;;;;;;;;;;;;;;357506;148;855983;-61
2022/05/29 01:11:40;;;;;;;;;;;;;;;;;;358847;148;855776;-61
2022/05/29 01:12:41;;;;;;;;;;;;;;;;;;354995;148;855833;-62
2022/05/29 01:13:43;;;;;;;;;;;;;;;;;;361184;148;857023;-62
2022/05/29 01:14:44;;;;;;;;;;;;;;;;;;359587;148;855066;-62
2022/05/29 01:15:45;;;;;;;;;;;;;;;;;;358134;148;855768;-61
2022/05/29 01:16:47;;;;;;;;;;;;;;;;;;357709;148;855768;-61
2022/05/29 01:17:48;;;;;;;;;;;;;;;;;;357457;148;855876;-61
2022/05/29 01:18:49;;;;;;;;;;;;;;;;;;361536;148;858126;-61
2022/05/29 01:19:51;;;;;;;;;;;;;;;;;;358435;148;855886;-61
2022/05/29 01:20:52;;;;;;;;;;;;;;;;;;358796;148;855862;-61
2022/05/29 01:21:55;;;;;;;;;;;;;;;;;;358365;148;856417;-61
2022/05/29 01:22:58;;;;;;;;;;;;;;;;;;357808;148;855928;-62
2022/05/29 01:23:59;;;;;;;;;;;;;;;;;;359694;148;856024;-62
2022/05/29 01:25:01;;;;;;;;;;;;;;;;;;355940;148;856479;-62
2022/05/29 01:26:02;;;;;;;;;;;;;;;;;;357776;148;855883;-62
2022/05/29 01:27:04;;;;;;;;;;;;;;;;;;360232;148;857636;-62
2022/05/29 01:28:05;;;;;;;;;;;;;;;;;;358387;148;856374;-62
2022/05/29 01:29:07;;;;;;;;;;;;;;;;;;360533;148;855860;-62
2022/05/29 01:30:10;;;;;;;;;;;;;;;;;;356768;148;855818;-61
2022/05/29 01:31:12;;;;;;;;;;;;;;;;;;358870;148;855946;-61
2022/05/29 01:32:13;;;;;;;;;;;;;;;;;;360582;148;855982;-61
2022/05/29 01:33:14;;;;;;;;;;;;;;;;;;360241;147;856013;-62
2022/05/29 01:34:16;;;;;;;;;;;;;;;;;;359057;147;855874;-60
2022/05/29 01:35:17;;;;;;;;;;;;;;;;;;361769;144;855898;-62
2022/05/29 01:36:18;;;;;;;;;;;;;;;;;;362509;147;855301;-62
2022/05/29 01:37:21;;;;;;;;;;;;;;;;;;360415;147;855895;-62
2022/05/29 01:38:22;;;;;;;;;;;;;;;;;;361840;147;856143;-61
2022/05/29 01:39:24;;;;;;;;;;;;;;;;;;360049;147;856199;-60
2022/05/29 01:40:25;;;;;;;;;;;;;;;;;;359852;147;855801;-61
2022/05/29 01:41:26;;;;;;;;;;;;;;;;;;358710;147;856035;-61
2022/05/29 01:42:28;;;;;;;;;;;;;;;;;;359984;147;855752;-61
2022/05/29 01:43:29;;;;;;;;;;;;;;;;;;360883;147;857446;-61
2022/05/29 01:44:30;;;;;;;;;;;;;;;;;;360365;147;855814;-61
2022/05/29 01:45:32;;;;;;;;;;;;;;;;;;359600;147;855823;-62
2022/05/29 01:46:33;;;;;;;;;;;;;;;;;;361309;147;856097;-61
2022/05/29 01:47:34;;;;;;;;;;;;;;;;;;358770;147;855861;-62
2022/05/29 01:48:36;;;;;;;;;;;;;;;;;;360463;147;857798;-62
2022/05/29 01:49:37;;;;;;;;;;;;;;;;;;359977;147;855977;-62
2022/05/29 01:50:38;;;;;;;;;;;;;;;;;;359677;149;856106;-62
2022/05/29 01:51:40;;;;;;;;;;;;;;;;;;360251;147;855836;-61
2022/05/29 01:52:41;;;;;;;;;;;;;;;;;;361335;147;857088;-61
2022/05/29 01:53:42;;;;;;;;;;;;;;;;;;360354;147;855827;-61
2022/05/29 01:54:44;;;;;;;;;;;;;;;;;;359401;147;855778;-61
2022/05/29 01:55:45;;;;;;;;;;;;;;;;;;361379;147;856913;-61
2022/05/29 01:56:46;;;;;;;;;;;;;;;;;;359343;147;855796;-61
2022/05/29 01:57:48;;;;;;;;;;;;;;;;;;360027;147;856636;-64
2022/05/29 01:58:49;;;;;;;;;;;;;;;;;;359825;147;855769;-61
2022/05/29 01:59:50;;;;;;;;;;;;;;;;;;358462;147;857695;-59
2022/05/29 02:00:52;;;;;;;;;;;;;;;;;;359947;147;855759;-61
2022/05/29 02:01:53;;;;;;;;;;;;;;;;;;358791;147;855889;-61
2022/05/29 02:02:55;;;;;;;;;;;;;;;;;;360530;147;856088;-60
2022/05/29 02:03:56;;;;;;;;;;;;;;;;;;358247;147;855875;-61
2022/05/29 02:04:57;;;;;;;;;;;;;;;;;;359025;147;856633;-61
2022/05/29 02:05:59;;;;;;;;;;;;;;;;;;360878;147;855954;-60
2022/05/29 02:08:20;;;;;;;;;;;;;;;;;;361597;147;857824;-60
2022/05/29 02:09:22;;;;;;;;;;;;;;;;;;360825;148;855880;-60
2022/05/29 02:10:23;;;;;;;;;;;;;;;;;;358548;150;856265;-60
2022/05/29 02:11:24;;;;;;;;;;;;;;;;;;350360;152;855800;-59
2022/05/29 02:12:26;;;;;;;;;;;;;;;;;;349866;151;856149;-60
2022/05/29 02:13:27;;;;;;;;;;;;;;;;;;348889;154;855749;-60
2022/05/29 02:14:28;;;;;;;;;;;;;;;;;;356852;152;857987;-60
2022/05/29 02:15:30;;;;;;;;;;;;;;;;;;356017;149;855748;-61
2022/05/29 02:16:31;;;;;;;;;;;;;;;;;;355425;149;858425;-60
2022/05/29 02:17:32;;;;;;;;;;;;;;;;;;354728;149;855810;-59
2022/05/29 02:18:34;;;;;;;;;;;;;;;;;;355976;149;856734;-59
2022/05/29 02:19:36;;;;;;;;;;;;;;;;;;354603;149;856000;-60
2022/05/29 02:20:37;;;;;;;;;;;;;;;;;;357329;149;855887;-59
2022/05/29 02:21:39;;;;;;;;;;;;;;;;;;350075;152;857963;-60
2022/05/29 02:22:40;;;;;;;;;;;;;;;;;;351014;151;855894;-59
2022/05/29 02:23:41;;;;;;;;;;;;;;;;;;349566;153;856309;-59
2022/05/29 02:24:43;;;;;;;;;;;;;;;;;;349580;152;855863;-60
2022/05/29 02:25:44;;;;;;;;;;;;;;;;;;349574;151;855800;-58
2022/05/29 02:26:45;;;;;;;;;;;;;;;;;;349443;151;855827;-60
2022/05/29 02:27:47;;;;;;;;;;;;;;;;;;351316;151;857440;-60
2022/05/29 02:28:48;;;;;;;;;;;;;;;;;;348858;151;856055;-59
2022/05/29 02:29:50;;;;;;;;;;;;;;;;;;350014;151;856324;-59
2022/05/29 02:30:51;;;;;;;;;;;;;;;;;;348016;154;855796;-60
2022/05/29 02:31:52;;;;;;;;;;;;;;;;;;350816;151;855843;-58
2022/05/29 02:32:54;;;;;;;;;;;;;;;;;;349526;151;855978;-59
2022/05/29 02:33:56;;;;;;;;;;;;;;;;;;349189;152;855956;-59
2022/05/29 02:34:57;;;;;;;;;;;;;;;;;;352074;150;855978;-60
2022/05/29 02:36:19;;;;;;;;;;;;;;;;;;353220;149;855915;-60
2022/05/29 02:37:02;;;;;;;;;;;;;;;;;;353543;150;856549;-60
2022/05/29 02:38:03;;;;;;;;;;;;;;;;;;354619;150;857592;-59
2022/05/29 02:39:04;;;;;;;;;;;;;;;;;;354466;151;855899;-59
2022/05/29 02:40:07;;;;;;;;;;;;;;;;;;355529;150;855901;-58
2022/05/29 02:41:08;;;;;;;;;;;;;;;;;;355607;150;856067;-59
2022/05/29 02:42:10;;;;;;;;;;;;;;;;;;354221;150;857904;-60
2022/05/29 02:43:11;;;;;;;;;;;;;;;;;;355553;150;857522;-60
2022/05/29 02:44:12;;;;;;;;;;;;;;;;;;356023;150;855975;-60
2022/05/29 02:45:14;;;;;;;;;;;;;;;;;;355227;150;856629;-60
2022/05/29 02:46:15;;;;;;;;;;;;;;;;;;354207;150;855895;-60
2022/05/29 02:47:16;;;;;;;;;;;;;;;;;;356094;150;858053;-60
2022/05/29 02:48:18;;;;;;;;;;;;;;;;;;355714;150;856379;-61
2022/05/29 02:49:20;;;;;;;;;;;;;;;;;;354867;150;855964;-59
2022/05/29 02:50:23;;;;;;;;;;;;;;;;;;355080;151;856906;-60
2022/05/29 02:51:25;;;;;;;;;;;;;;;;;;355323;150;855834;-60
2022/05/29 02:52:26;;;;;;;;;;;;;;;;;;354434;150;857492;-59
2022/05/29 02:53:27;;;;;;;;;;;;;;;;;;355439;149;856033;-60
2022/05/29 02:54:29;;;;;;;;;;;;;;;;;;353073;150;855790;-62
2022/05/29 02:55:30;;;;;;;;;;;;;;;;;;353173;150;855773;-61
2022/05/29 02:56:32;;;;;;;;;;;;;;;;;;354204;151;855791;-61
2022/05/29 02:57:33;;;;;;;;;;;;;;;;;;353959;149;855748;-61
2022/05/29 02:58:34;;;;;;;;;;;;;;;;;;355569;150;856014;-60
2022/05/29 02:59:36;;;;;;;;;;;;;;;;;;353539;151;856397;-60
2022/05/29 03:00:37;;;;;;;;;;;;;;;;;;355264;150;855935;-61
2022/05/29 03:01:38;;;;;;;;;;;;;;;;;;355823;151;855887;-60
2022/05/29 03:02:40;;;;;;;;;;;;;;;;;;355398;150;855202;-59
2022/05/29 03:03:41;;;;;;;;;;;;;;;;;;355421;151;855055;-59
2022/05/29 03:04:42;;;;;;;;;;;;;;;;;;355910;149;854969;-59
2022/05/29 03:05:44;;;;;;;;;;;;;;;;;;355646;150;854875;-60
2022/05/29 03:06:45;;;;;;;;;;;;;;;;;;354524;150;854940;-58
2022/05/29 03:07:46;;;;;;;;;;;;;;;;;;354546;150;854952;-59
2022/05/29 03:08:48;;;;;;;;;;;;;;;;;;356254;149;854994;-59
2022/05/29 03:09:49;;;;;;;;;;;;;;;;;;355550;150;854916;-62
2022/05/29 03:10:51;;;;;;;;;;;;;;;;;;354519;150;854928;-58
2022/05/29 03:11:52;;;;;;;;;;;;;;;;;;355409;150;854946;-60
2022/05/29 03:12:53;;;;;;;;;;;;;;;;;;354333;150;854951;-59
2022/05/29 03:13:55;;;;;;;;;;;;;;;;;;354476;150;855059;-58
2022/05/29 03:14:56;;;;;;;;;;;;;;;;;;353416;149;855018;-59
2022/05/29 03:15:57;;;;;;;;;;;;;;;;;;354839;150;855030;-61
2022/05/29 03:16:59;;;;;;;;;;;;;;;;;;353776;149;855046;-60
2022/05/29 03:18:00;;;;;;;;;;;;;;;;;;355105;150;855081;-60
2022/05/29 03:19:02;;;;;;;;;;;;;;;;;;354267;150;855237;-61
2022/05/29 03:20:03;;;;;;;;;;;;;;;;;;355030;150;855040;-59
2022/05/29 03:21:05;;;;;;;;;;;;;;;;;;354958;151;854886;-62
2022/05/29 03:22:06;;;;;;;;;;;;;;;;;;353534;151;855013;-60
2022/05/29 03:23:08;;;;;;;;;;;;;;;;;;354955;150;854984;-60
2022/05/29 03:24:09;;;;;;;;;;;;;;;;;;355606;150;854925;-60
2022/05/29 03:25:11;;;;;;;;;;;;;;;;;;355074;149;854992;-61
2022/05/29 03:26:12;;;;;;;;;;;;;;;;;;354615;149;855294;-60
2022/05/29 03:27:14;;;;;;;;;;;;;;;;;;354425;150;855632;-60
2022/05/29 03:28:15;;;;;;;;;;;;;;;;;;356222;150;855134;-60
2022/05/29 03:29:16;;;;;;;;;;;;;;;;;;355591;149;855224;-59
2022/05/29 03:30:18;;;;;;;;;;;;;;;;;;356661;149;855628;-60
2022/05/29 03:31:19;;;;;;;;;;;;;;;;;;354007;150;855126;-60
2022/05/29 03:32:20;;;;;;;;;;;;;;;;;;355021;149;855094;-61
2022/05/29 03:33:22;;;;;;;;;;;;;;;;;;354801;150;856010;-60
2022/05/29 03:34:23;;;;;;;;;;;;;;;;;;354126;150;855784;-60
2022/05/29 03:35:24;;;;;;;;;;;;;;;;;;354686;150;857862;-62
2022/05/29 03:36:28;;;;;;;;;;;;;;;;;;354500;150;855855;-61
2022/05/29 03:37:30;;;;;;;;;;;;;;;;;;354653;151;858313;-60
2022/05/29 03:38:31;;;;;;;;;;;;;;;;;;353175;150;856452;-62
2022/05/29 03:39:33;;;;;;;;;;;;;;;;;;352825;150;855841;-57
2022/05/29 03:40:34;;;;;;;;;;;;;;;;;;353794;150;858002;-61
2022/05/29 03:41:36;;;;;;;;;;;;;;;;;;351204;151;856325;-62
2022/05/29 03:42:38;;;;;;;;;;;;;;;;;;353742;151;855928;-59
2022/05/29 03:43:40;;;;;;;;;;;;;;;;;;353529;151;857887;-59
2022/05/29 03:44:41;;;;;;;;;;;;;;;;;;359605;148;855903;-60
2022/05/29 03:45:43;;;;;;;;;;;;;;;;;;360729;148;855857;-59
2022/05/29 03:46:44;;;;;;;;;;;;;;;;;;359781;148;857237;-58
2022/05/29 03:47:46;;;;;;;;;;;;;;;;;;363813;145;855746;-59
2022/05/29 03:48:47;;;;;;;;;;;;;;;;;;363653;146;856315;-58
2022/05/29 03:49:48;;;;;;;;;;;;;;;;;;365416;146;855148;-59
2022/05/29 03:50:50;;;;;;;;;;;;;;;;;;364961;146;855772;-59
2022/05/29 03:51:51;;;;;;;;;;;;;;;;;;366268;146;855956;-59
2022/05/29 03:52:52;;;;;;;;;;;;;;;;;;363557;145;855796;-59
2022/05/29 03:53:54;;;;;;;;;;;;;;;;;;367210;145;855812;-59
2022/05/29 03:54:55;;;;;;;;;;;;;;;;;;364463;146;855992;-59
2022/05/29 03:55:57;;;;;;;;;;;;;;;;;;364619;146;856854;-58
2022/05/29 03:56:59;;;;;;;;;;;;;;;;;;365389;146;855806;-58
2022/05/29 03:58:00;;;;;;;;;;;;;;;;;;364581;146;855845;-61
2022/05/29 03:59:02;;;;;;;;;;;;;;;;;;364220;146;855973;-60
2022/05/29 04:00:03;;;;;;;;;;;;;;;;;;363159;146;856442;-59
2022/05/29 04:01:04;;;;;;;;;;;;;;;;;;364671;146;857803;-59
2022/05/29 04:02:06;;;;;;;;;;;;;;;;;;365661;146;854930;-59
2022/05/29 04:03:07;;;;;;;;;;;;;;;;;;366691;146;855821;-59
2022/05/29 04:04:08;;;;;;;;;;;;;;;;;;365771;146;856000;-59
2022/05/29 04:05:10;;;;;;;;;;;;;;;;;;364806;145;855831;-59
2022/05/29 04:06:13;;;;;;;;;;;;;;;;;;363749;145;857490;-59
2022/05/29 04:07:14;;;;;;;;;;;;;;;;;;362729;146;855897;-58
2022/05/29 04:12:16;;;;;;;;;;;;;;;;;;364928;145;856128;-59
2022/05/29 04:13:17;;;;;;;;;;;;;;;;;;366288;146;855182;-60
2022/05/29 04:14:19;;;;;;;;;;;;;;;;;;365761;146;857647;-60
2022/05/29 04:15:20;;;;;;;;;;;;;;;;;;363852;146;856751;-62
2022/05/29 04:16:21;;;;;;;;;;;;;;;;;;367031;145;855897;-60
2022/05/29 04:17:23;;;;;;;;;;;;;;;;;;364501;146;856318;-60
2022/05/29 04:18:24;;;;;;;;;;;;;;;;;;365904;146;855779;-60
2022/05/29 04:19:25;;;;;;;;;;;;;;;;;;364542;146;855863;-58
2022/05/29 04:20:27;;;;;;;;;;;;;;;;;;365638;146;855708;-59
2022/05/29 04:21:28;;;;;;;;;;;;;;;;;;366186;146;857602;-58
2022/05/29 04:22:30;;;;;;;;;;;;;;;;;;364272;146;854902;-59
2022/05/29 04:23:31;;;;;;;;;;;;;;;;;;363688;146;854899;-58
2022/05/29 04:24:33;;;;;;;;;;;;;;;;;;362903;147;857057;-61
2022/05/29 04:25:34;;;;;;;;;;;;;;;;;;361967;146;855824;-60
2022/05/29 04:26:36;;;;;;;;;;;;;;;;;;364754;147;857436;-60
2022/05/29 04:27:38;;;;;;;;;;;;;;;;;;365583;146;855947;-60
2022/05/29 04:28:39;;;;;;;;;;;;;;;;;;366460;146;855449;-61
2022/05/29 04:29:40;;;;;;;;;;;;;;;;;;364458;145;856264;-59
2022/05/29 04:30:42;;;;;;;;;;;;;;;;;;364230;145;855882;-58
2022/05/29 04:33:04;;;;;;;;;;;;;;;;;;364471;146;856768;-59
2022/05/29 04:34:05;;;;;;;;;;;;;;;;;;362064;146;855802;-60
2022/05/29 04:35:06;;;;;;;;;;;;;;;;;;365505;145;856391;-57
2022/05/29 04:36:08;;;;;;;;;;;;;;;;;;365405;145;855772;-57
2022/05/29 04:37:09;;;;;;;;;;;;;;;;;;362308;147;856783;-57
2022/05/29 04:38:10;;;;;;;;;;;;;;;;;;362903;148;856009;-57
2022/05/29 04:39:12;;;;;;;;;;;;;;;;;;362434;147;855931;-57
2022/05/29 04:40:13;;;;;;;;;;;;;;;;;;364087;147;856474;-57
2022/05/29 04:41:15;;;;;;;;;;;;;;;;;;361678;147;855877;-55
2022/05/29 04:42:16;;;;;;;;;;;;;;;;;;362462;147;857636;-56
2022/05/29 04:43:18;;;;;;;;;;;;;;;;;;361824;147;856364;-57
2022/05/29 04:44:19;;;;;;;;;;;;;;;;;;361203;148;857675;-57
2022/05/29 04:45:21;;;;;;;;;;;;;;;;;;361846;147;857583;-58
2022/05/29 04:46:22;;;;;;;;;;;;;;;;;;362534;147;855885;-55
2022/05/29 04:47:23;;;;;;;;;;;;;;;;;;360959;147;855860;-56
2022/05/29 04:48:25;;;;;;;;;;;;;;;;;;361782;148;857127;-55
2022/05/29 04:49:26;;;;;;;;;;;;;;;;;;361643;147;855860;-57
2022/05/29 04:50:28;;;;;;;;;;;;;;;;;;363153;147;854957;-58
2022/05/29 04:51:29;;;;;;;;;;;;;;;;;;362802;147;854894;-58
2022/05/29 04:52:31;;;;;;;;;;;;;;;;;;362401;147;855620;-59
2022/05/29 04:53:32;;;;;;;;;;;;;;;;;;362152;147;854884;-59
2022/05/29 04:54:34;;;;;;;;;;;;;;;;;;353688;151;854940;-58
2022/05/29 04:55:35;;;;;;;;;;;;;;;;;;352527;151;854933;-55
2022/05/29 04:56:36;;;;;;;;;;;;;;;;;;352893;151;854969;-57
2022/05/29 04:57:38;;;;;;;;;;;;;;;;;;354667;151;855066;-57
2022/05/29 04:58:39;;;;;;;;;;;;;;;;;;353015;151;856194;-58
2022/05/29 04:59:40;;;;;;;;;;;;;;;;;;352679;151;855108;-59
2022/05/29 05:00:42;;;;;;;;;;;;;;;;;;352460;151;855074;-58
2022/05/29 05:01:43;;;;;;;;;;;;;;;;;;353237;151;854995;-59
2022/05/29 05:02:45;;;;;;;;;;;;;;;;;;353505;151;854958;-58
2022/05/29 05:03:46;;;;;;;;;;;;;;;;;;354270;151;855439;-58
2022/05/29 05:04:48;;;;;;;;;;;;;;;;;;352670;151;855020;-58
2022/05/29 05:05:49;;;;;;;;;;;;;;;;;;354055;151;854972;-57
2022/05/29 05:06:52;;;;;;;;;;;;;;;;;;353333;151;855149;-57
2022/05/29 05:07:55;;;;;;;;;;;;;;;;;;353422;151;854999;-58
2022/05/29 05:08:57;;;;;;;;;;;;;;;;;;353264;151;854943;-57
2022/05/29 05:09:58;;;;;;;;;;;;;;;;;;352621;151;854857;-56
2022/05/29 05:10:59;;;;;;;;;;;;;;;;;;353862;151;855093;-57
2022/05/29 05:12:01;;;;;;;;;;;;;;;;;;353384;151;855047;-56
2022/05/29 05:13:02;;;;;;;;;;;;;;;;;;351490;151;855004;-57
2022/05/29 05:14:04;;;;;;;;;;;;;;;;;;352472;151;856037;-59
2022/05/29 05:15:06;;;;;;;;;;;;;;;;;;353308;151;855844;-57
2022/05/29 05:16:07;;;;;;;;;;;;;;;;;;353161;150;855801;-57
2022/05/29 05:17:09;;;;;;;;;;;;;;;;;;352459;151;857955;-58
2022/05/29 05:18:10;;;;;;;;;;;;;;;;;;353179;150;856279;-56
2022/05/29 05:19:11;;;;;;;;;;;;;;;;;;350234;152;855971;-57
2022/05/29 05:20:13;;;;;;;;;;;;;;;;;;352244;151;855888;-56
2022/05/29 05:21:15;;;;;;;;;;;;;;;;;;351551;151;856043;-57
2022/05/29 05:22:16;;;;;;;;;;;;;;;;;;352122;151;856039;-61
2022/05/29 05:23:17;;;;;;;;;;;;;;;;;;353271;151;855157;-57
2022/05/29 05:24:19;;;;;;;;;;;;;;;;;;353495;151;855978;-58
2022/05/29 05:25:20;;;;;;;;;;;;;;;;;;354654;151;856656;-57
2022/05/29 05:26:22;;;;;;;;;;;;;;;;;;356677;151;855949;-58
2022/05/29 05:27:24;;;;;;;;;;;;;;;;;;350856;151;854995;-59
2022/05/29 05:28:26;;;;;;;;;;;;;;;;;;353818;151;856234;-59
2022/05/29 05:29:27;;;;;;;;;;;;;;;;;;350870;152;855843;-58
2022/05/29 05:30:28;;;;;;;;;;;;;;;;;;353603;151;855664;-57
2022/05/29 05:31:30;;;;;;;;;;;;;;;;;;342723;155;856012;-58
2022/05/29 05:32:32;;;;;;;;;;;;;;;;;;354694;150;855886;-59
2022/05/29 05:33:33;;;;;;;;;;;;;;;;;;361683;147;856077;-59
2022/05/29 05:34:35;;;;;;;;;;;;;;;;;;361298;149;856349;-57
2022/05/29 05:35:36;;;;;;;;;;;;;;;;;;362029;147;855824;-57
2022/05/29 05:36:38;;;;;;;;;;;;;;;;;;363871;145;856115;-58
2022/05/29 05:37:39;;;;;;;;;;;;;;;;;;363954;146;855864;-58
2022/05/29 05:38:41;;;;;;;;;;;;;;;;;;364150;145;856670;-57
2022/05/29 05:39:43;;;;;;;;;;;;;;;;;;363178;146;855860;-60
2022/05/29 05:40:44;;;;;;;;;;;;;;;;;;367099;145;855801;-59
2022/05/29 05:41:46;;;;;;;;;;;;;;;;;;360349;147;856667;-58
2022/05/29 05:42:47;;;;;;;;;;;;;;;;;;352515;151;855765;-57
2022/05/29 05:43:48;;;;;;;;;;;;;;;;;;359822;148;855723;-59
2022/05/29 05:44:50;;;;;;;;;;;;;;;;;;354111;151;857403;-60
2022/05/29 05:45:51;;;;;;;;;;;;;;;;;;365399;146;857593;-60
2022/05/29 05:46:53;;;;;;;;;;;;;;;;;;365199;145;855932;-60
2022/05/29 05:47:55;;;;;;;;;;;;;;;;;;364984;147;855771;-57
2022/05/29 05:48:57;;;;;;;;;;;;;;;;;;363744;146;855911;-57
2022/05/29 05:49:58;;;;;;;;;;;;;;;;;;363310;146;856304;-56
2022/05/29 05:51:00;;;;;;;;;;;;;;;;;;364100;147;856343;-57
2022/05/29 05:52:02;;;;;;;;;;;;;;;;;;363936;146;856544;-57
2022/05/29 05:53:04;;;;;;;;;;;;;;;;;;363533;146;855868;-59
2022/05/29 05:54:05;;;;;;;;;;;;;;;;;;365714;146;855796;-59
2022/05/29 05:55:06;;;;;;;;;;;;;;;;;;366043;146;856182;-59
2022/05/29 05:56:08;;;;;;;;;;;;;;;;;;364939;147;855889;-58
2022/05/29 05:57:09;;;;;;;;;;;;;;;;;;365496;147;855940;-57
2022/05/29 05:58:10;;;;;;;;;;;;;;;;;;365118;147;855952;-58
2022/05/29 05:59:12;;;;;;;;;;;;;;;;;;365057;146;857316;-58
2022/05/29 06:00:13;;;;;;;;;;;;;;;;;;366940;146;855252;-58
2022/05/29 06:01:15;;;;;;;;;;;;;;;;;;365447;145;855808;-58
2022/05/29 06:02:17;;;;;;;;;;;;;;;;;;365297;146;855331;-58
2022/05/29 06:03:18;;;;;;;;;;;;;;;;;;363834;146;855121;-57
2022/05/29 06:04:19;;;;;;;;;;;;;;;;;;365022;146;856031;-57
2022/05/29 06:05:21;;;;;;;;;;;;;;;;;;363799;145;855850;-56
2022/05/29 06:06:22;;;;;;;;;;;;;;;;;;364305;146;857631;-57
2022/05/29 06:07:23;;;;;;;;;;;;;;;;;;365204;146;856220;-56
2022/05/29 06:08:25;;;;;;;;;;;;;;;;;;366275;146;855763;-57
2022/05/29 06:09:27;;;;;;;;;;;;;;;;;;363967;145;856210;-58
2022/05/29 06:10:28;;;;;;;;;;;;;;;;;;364743;145;855775;-58
2022/05/29 06:11:30;;;;;;;;;;;;;;;;;;362874;146;855866;-58
2022/05/29 06:12:31;;;;;;;;;;;;;;;;;;363618;146;856573;-59
2022/05/29 06:13:33;;;;;;;;;;;;;;;;;;364341;146;857528;-59
2022/05/29 06:14:34;;;;;;;;;;;;;;;;;;364854;145;855840;-58
2022/05/29 06:15:36;;;;;;;;;;;;;;;;;;365154;145;855816;-59
2022/05/29 06:16:37;;;;;;;;;;;;;;;;;;366181;145;855918;-58
2022/05/29 06:17:38;;;;;;;;;;;;;;;;;;365912;145;855831;-58
2022/05/29 06:18:40;;;;;;;;;;;;;;;;;;364719;146;857588;-59
2022/05/29 06:19:41;;;;;;;;;;;;;;;;;;365490;146;855095;-59
2022/05/29 06:20:42;;;;;;;;;;;;;;;;;;364766;145;856725;-57
2022/05/29 06:21:44;;;;;;;;;;;;;;;;;;364776;146;855289;-58
2022/05/29 06:22:46;;;;;;;;;;;;;;;;;;365854;145;857441;-58
2022/05/29 06:23:47;;;;;;;;;;;;;;;;;;363526;147;855871;-58
2022/05/29 06:24:48;;;;;;;;;;;;;;;;;;364734;145;855839;-58
2022/05/29 06:25:50;;;;;;;;;;;;;;;;;;364830;145;856562;-58
2022/05/29 06:26:51;;;;;;;;;;;;;;;;;;363673;146;855828;-58
2022/05/29 06:27:52;;;;;;;;;;;;;;;;;;364979;146;857577;-57
2022/05/29 06:28:54;;;;;;;;;;;;;;;;;;362023;146;856064;-58
2022/05/29 06:29:56;;;;;;;;;;;;;;;;;;365019;146;855768;-58
2022/05/29 06:30:57;;;;;;;;;;;;;;;;;;363185;146;855725;-58
2022/05/29 06:31:59;;;;;;;;;;;;;;;;;;364565;146;857527;-56
2022/05/29 06:33:01;;;;;;;;;;;;;;;;;;365235;145;857602;-57
2022/05/29 06:34:02;;;;;;;;;;;;;;;;;;365358;145;855949;-57
2022/05/29 06:35:04;;;;;;;;;;;;;;;;;;365392;146;855956;-56
2022/05/29 06:36:05;;;;;;;;;;;;;;;;;;365134;146;857558;-59
2022/05/29 06:37:07;;;;;;;;;;;;;;;;;;366692;146;855755;-58
2022/05/29 06:38:08;;;;;;;;;;;;;;;;;;365913;145;855745;-57
2022/05/29 06:39:09;;;;;;;;;;;;;;;;;;364559;146;855870;-58
2022/05/29 06:40:12;;;;;;;;;;;;;;;;;;363984;145;855985;-58
2022/05/29 06:41:14;;;;;;;;;;;;;;;;;;364423;146;857648;-56
2022/05/29 06:42:16;;;;;;;;;;;;;;;;;;365335;146;855950;-59
2022/05/29 06:43:17;;;;;;;;;;;;;;;;;;363508;146;855871;-56
2022/05/29 06:44:19;;;;;;;;;;;;;;;;;;363327;146;857932;-57
2022/05/29 06:45:20;;;;;;;;;;;;;;;;;;365173;146;855977;-58
2022/05/29 06:46:21;;;;;;;;;;;;;;;;;;364243;147;856042;-58
2022/05/29 06:47:23;;;;;;;;;;;;;;;;;;364366;146;854871;-59
2022/05/29 06:48:24;;;;;;;;;;;;;;;;;;365273;146;858005;-60
2022/05/29 06:49:25;;;;;;;;;;;;;;;;;;364603;146;858259;-57
2022/05/29 06:50:27;;;;;;;;;;;;;;;;;;364842;146;855737;-57
2022/05/29 06:51:28;;;;;;;;;;;;;;;;;;364255;146;855985;-57
2022/05/29 06:52:31;;;;;;;;;;;;;;;;;;364743;145;855875;-58
2022/05/29 06:53:32;;;;;;;;;;;;;;;;;;365652;145;857482;-60
2022/05/29 06:54:33;;;;;;;;;;;;;;;;;;364424;145;857240;-60
2022/05/29 06:55:35;;;;;;;;;;;;;;;;;;365817;145;854931;-59
2022/05/29 06:56:37;;;;;;;;;;;;;;;;;;364723;147;857515;-61
2022/05/29 06:57:43;;;;;;;;;;;;;;;;;;366642;145;855839;-59
2022/05/29 06:58:44;;;;;;;;;;;;;;;;;;365098;146;855966;-59
2022/05/29 07:07:45;;;;;;;;;;;;;;;;;;363130;146;857585;-59